Accueil
METAR-TAF:

METAR-TAF

Aéroports :

Aéroport d'Alghero-Fertilia

Alghero, Italie

latitude: 40-38N, longitude: 008-17E, altitude: 23 m

Observation

Le bulletin a été fait il y a 42 minutes, à 13:50 UTC
Vent 9 kt de ouest/nord-ouest, variant entre ouest et nord/nord-ouest
Température 16°C
Humidité 68%
Pression 1014 hPa
Visibilité 10 km ou plus
Quelques nuages à une hauteur de 3000 ft

METAR: LIEA 011350Z 29009KT 260V340 9999 FEW030 16/10 Q1014

Heure: 15:32 (14:32 UTC)

Prévision

Le bulletin a été fait il y a 3 heures et 32 minutes, à 11:00 UTC
Prévision valable du 01 à 12 UTC au 02 à 12 UTC
Vent 10 kt de ouest
Visibilité 10 km ou plus
Nuages épars à une hauteur de 3000 ft
Temporairement
du 01 à 15 UTC au 02 à 03 UTC
Visibilité: 4000 m
pluie

TAF: LIEA 011100Z 0112/0212 28010KT 9999 SCT030 TEMPO 0115/0203 4000 RA

Observations et prévisions météorologiques de plus de 4000 aéroports (messages METAR et TAF).

Les stations disponibles sont représentées par des disques jaunes et rouges sur la carte.

Passer la souris dessus pour voir le nom de la station.

Cliquer dessus pour voir les observations et prévisions météorologiques.

Pour changer de carte: cliquez sur les boutons verts avec une croix noire pour zoomer, sur le bouton vert avec un tiret pour effectuer un zoom arrière, ou sur les flèches vertes pour les cartes adjacentes.


METAR-TAF: